Time;durP1;ratioP1;P1;durP2;ratioP2;P2;SDS_P1;SDS_P2;PMS_P1;PMS_P2;Temp;Humidity;BMP_temperature;BMP_pressure;BME280_temperature;BME280_humidity;BME280_pressure;Samples;Min_cycle;Max_cycle;Signal;HPM_P1;HPM_P2
2022/10/24 00:01:11;;;;;;;15.75;3.78;;;13.40;99.90;;;;;;5086234;28;20067;-49
2022/10/24 00:03:38;;;;;;;7.03;2.75;;;13.30;99.90;;;;;;5085498;28;20047;-49
2022/10/24 00:06:07;;;;;;;13.70;3.50;;;13.20;99.90;;;;;;5081145;28;20072;-50
2022/10/24 00:08:35;;;;;;;22.90;3.03;;;13.10;99.90;;;;;;5072162;28;20094;-49
2022/10/24 00:11:11;;;;;;;9.95;3.20;;;13.00;99.90;;;;;;5073779;28;20140;-48
2022/10/24 00:13:38;;;;;;;12.95;2.95;;;12.90;99.90;;;;;;5070311;28;20040;-51
2022/10/24 00:16:05;;;;;;;5.95;2.45;;;12.90;99.90;;;;;;5085616;28;20071;-50
2022/10/24 00:18:32;;;;;;;12.43;3.17;;;12.90;99.90;;;;;;5073367;28;20124;-49
2022/10/24 00:20:59;;;;;;;5.45;2.70;;;12.80;99.90;;;;;;5072619;28;20131;-49
2022/10/24 00:23:26;;;;;;;8.02;3.13;;;12.90;99.90;;;;;;5092681;28;20044;-48
2022/10/24 00:25:53;;;;;;;9.00;2.60;;;12.90;99.90;;;;;;5093091;28;20050;-49
2022/10/24 00:28:19;;;;;;;8.90;2.72;;;12.90;99.90;;;;;;5093581;28;20071;-49
2022/10/24 00:30:53;;;;;;;5.03;2.13;;;13.00;99.90;;;;;;5090139;28;20059;-52
2022/10/24 00:33:20;;;;;;;7.95;2.47;;;13.00;99.90;;;;;;5083235;28;20110;-48
2022/10/24 00:35:46;;;;;;;10.63;2.70;;;12.90;99.90;;;;;;5071894;28;20072;-49
2022/10/24 00:38:13;;;;;;;11.18;2.65;;;12.90;99.90;;;;;;5079648;28;20075;-49
2022/10/24 00:40:40;;;;;;;6.80;2.28;;;12.80;99.90;;;;;;5088729;28;20097;-51
2022/10/24 00:43:19;;;;;;;7.57;2.55;;;12.90;99.90;;;;;;5075100;28;20536;-49
2022/10/24 00:45:56;;;;;;;16.90;3.17;;;12.80;99.90;;;;;;5093026;28;20116;-50
2022/10/24 00:48:30;;;;;;;11.68;2.80;;;12.80;99.90;;;;;;5092271;28;20040;-49
2022/10/24 00:51:02;;;;;;;12.00;2.97;;;12.90;99.90;;;;;;5093686;28;20412;-49
2022/10/24 00:53:32;;;;;;;11.15;2.65;;;12.90;99.90;;;;;;5082672;28;20465;-49
2022/10/24 00:56:01;;;;;;;11.65;2.65;;;12.90;99.90;;;;;;5077325;28;20045;-50
2022/10/24 00:58:31;;;;;;;7.47;2.38;;;12.80;99.90;;;;;;5072400;28;20158;-49
2022/10/24 01:00:58;;;;;;;6.72;2.70;;;12.80;99.90;;;;;;5072889;28;20071;-50
2022/10/24 01:03:25;;;;;;;7.30;2.78;;;12.90;99.90;;;;;;5091931;28;20497;-53
2022/10/24 01:06:36;;;;;;;8.50;3.00;;;13.00;99.90;;;;;;5091270;28;20128;-50
2022/10/24 01:09:29;;;;;;;12.90;2.90;;;13.00;99.90;;;;;;5088880;28;20070;-50
2022/10/24 01:11:58;;;;;;;12.25;2.95;;;12.90;99.90;;;;;;5082341;28;20052;-49
2022/10/24 01:14:25;;;;;;;5.80;2.63;;;13.00;99.90;;;;;;5092043;28;20064;-49
2022/10/24 01:17:26;;;;;;;9.30;2.70;;;13.00;99.90;;;;;;5086370;28;20060;-49
2022/10/24 01:20:09;;;;;;;12.63;2.83;;;13.00;99.90;;;;;;5065399;28;20135;-51
2022/10/24 01:23:01;;;;;;;16.02;2.90;;;13.10;99.90;;;;;;5077361;28;20134;-49
2022/10/24 01:25:57;;;;;;;12.57;3.25;;;13.20;99.90;;;;;;5092205;28;20075;-50
2022/10/24 01:28:34;;;;;;;9.40;2.63;;;13.30;99.90;;;;;;5091722;28;20086;-49
2022/10/24 01:31:09;;;;;;;6.47;2.42;;;13.30;99.90;;;;;;5090749;28;20453;-47
2022/10/24 01:33:42;;;;;;;10.70;2.80;;;13.40;99.90;;;;;;5084257;28;20063;-52
2022/10/24 01:36:33;;;;;;;9.95;2.85;;;13.40;99.90;;;;;;5092818;28;20412;-49
2022/10/24 01:39:06;;;;;;;6.80;2.65;;;13.50;99.90;;;;;;5091090;28;20504;-50
2022/10/24 01:41:33;;;;;;;14.35;3.63;;;13.50;99.90;;;;;;5084244;28;20048;-49
2022/10/24 01:44:01;;;;;;;;;;;13.50;99.90;;;;;;5091927;28;20617;-50
2022/10/24 01:46:33;;;;;;;14.95;2.90;;;13.40;99.90;;;;;;5091283;28;19968;-47
2022/10/24 01:49:14;;;;;;;6.15;2.45;;;13.30;99.90;;;;;;5089320;28;20404;-49
2022/10/24 01:51:43;;;;;;;11.20;3.72;;;13.40;99.90;;;;;;5091979;28;20067;-50
2022/10/24 01:54:11;;;;;;;7.65;2.20;;;13.40;99.90;;;;;;5089058;28;20133;-49
2022/10/24 01:56:38;;;;;;;11.82;2.53;;;13.30;99.90;;;;;;5079911;28;20559;-49
2022/10/24 01:59:27;;;;;;;10.32;2.53;;;13.30;99.90;;;;;;5075483;28;20114;-49
2022/10/24 02:02:35;;;;;;;5.63;2.53;;;13.40;99.90;;;;;;5076256;28;20435;-51
2022/10/24 02:05:05;;;;;;;14.02;3.33;;;13.50;99.90;;;;;;5012780;28;20112;-50
2022/10/24 02:07:34;;;;;;;12.30;2.72;;;13.50;99.90;;;;;;5084528;28;20089;-51
2022/10/24 02:10:11;;;;;;;12.80;2.53;;;13.50;99.90;;;;;;5097240;22;20069;-48
2022/10/24 02:12:42;;;;;;;8.70;3.00;;;13.50;99.90;;;;;;5070731;28;20040;-51
2022/10/24 02:15:30;;;;;;;11.90;3.38;;;13.60;99.90;;;;;;5078854;28;20392;-48
2022/10/24 02:17:57;;;;;;;13.35;2.97;;;13.50;99.90;;;;;;5073663;28;20068;-49
2022/10/24 02:20:38;;;;;;;7.97;2.40;;;13.30;99.90;;;;;;5091302;28;20549;-48
2022/10/24 02:23:16;;;;;;;6.65;2.70;;;13.20;99.90;;;;;;5085805;28;20086;-49
2022/10/24 02:25:47;;;;;;;8.82;2.45;;;13.20;99.90;;;;;;5077464;28;20064;-51
2022/10/24 02:28:19;;;;;;;8.77;2.65;;;13.30;99.90;;;;;;5071137;28;20048;-48
2022/10/24 02:30:59;;;;;;;17.15;3.05;;;13.40;99.90;;;;;;5070846;28;20056;-50
2022/10/24 02:33:29;;;;;;;11.77;2.90;;;13.60;99.90;;;;;;5087122;28;20489;-49
2022/10/24 02:35:57;;;;;;;14.65;2.60;;;13.60;99.90;;;;;;5082165;28;20043;-49
2022/10/24 02:38:34;;;;;;;12.98;2.90;;;13.60;99.90;;;;;;5088002;28;20139;-49
2022/10/24 02:41:04;;;;;;;8.57;2.60;;;13.50;99.90;;;;;;5071339;28;20495;-50
2022/10/24 02:43:33;;;;;;;14.05;2.72;;;13.40;99.90;;;;;;5070912;28;20450;-51
2022/10/24 02:45:59;;;;;;;14.23;3.05;;;13.40;99.90;;;;;;5071066;28;20131;-49
2022/10/24 02:48:34;;;;;;;6.35;2.47;;;13.50;99.90;;;;;;5078960;28;20051;-52
2022/10/24 02:51:02;;;;;;;7.03;2.42;;;13.50;99.90;;;;;;5087000;28;20127;-49
2022/10/24 02:53:29;;;;;;;7.22;2.33;;;13.60;99.90;;;;;;5088418;28;20550;-49
2022/10/24 02:55:56;;;;;;;16.33;2.92;;;13.70;99.90;;;;;;5071018;28;20071;-49
2022/10/24 02:58:22;;;;;;;11.73;3.20;;;13.70;99.90;;;;;;5071200;28;20123;-49
2022/10/24 03:00:49;;;;;;;10.55;3.10;;;13.70;99.90;;;;;;5075082;28;20599;-49
2022/10/24 03:03:16;;;;;;;6.90;2.47;;;13.60;99.90;;;;;;5074412;28;20385;-51
2022/10/24 03:05:43;;;;;;;18.85;3.25;;;13.60;99.90;;;;;;5083072;28;20472;-49
2022/10/24 03:08:11;;;;;;;12.30;2.78;;;13.50;99.90;;;;;;5092376;28;20048;-51
2022/10/24 03:10:37;;;;;;;9.45;2.75;;;13.60;99.90;;;;;;5088161;28;20079;-48
2022/10/24 03:13:04;;;;;;;12.73;3.42;;;13.70;99.90;;;;;;5094954;28;20094;-49
2022/10/24 03:15:31;;;;;;;8.10;2.15;;;13.80;99.90;;;;;;5094363;28;20093;-50
2022/10/24 03:17:58;;;;;;;13.70;2.47;;;13.90;99.90;;;;;;5091064;28;20036;-47
2022/10/24 03:20:25;;;;;;;8.75;2.15;;;13.80;99.90;;;;;;5085248;28;20127;-49
2022/10/24 03:22:52;;;;;;;14.30;3.08;;;13.80;99.90;;;;;;5075342;28;20076;-49
2022/10/24 03:25:18;;;;;;;9.57;2.13;;;13.90;99.90;;;;;;5087850;28;20197;-51
2022/10/24 03:27:47;;;;;;;8.50;2.80;;;14.00;99.90;;;;;;5081507;28;20123;-49
2022/10/24 03:30:13;;;;;;;15.10;2.85;;;14.00;99.90;;;;;;5093778;28;20044;-52
2022/10/24 03:32:40;;;;;;;14.27;2.83;;;14.00;99.90;;;;;;5083695;28;20060;-48
2022/10/24 03:35:07;;;;;;;12.43;3.15;;;14.00;99.90;;;;;;5081692;28;20505;-49
2022/10/24 03:37:39;;;;;;;9.88;2.63;;;13.90;99.90;;;;;;5094433;28;20044;-50
2022/10/24 03:40:07;;;;;;;9.55;3.10;;;13.80;99.90;;;;;;5087273;28;20044;-51
2022/10/24 03:42:34;;;;;;;14.65;3.10;;;13.60;99.90;;;;;;5094845;28;20048;-49
2022/10/24 03:45:01;;;;;;;10.88;3.00;;;13.60;99.90;;;;;;5086563;28;20111;-49
2022/10/24 03:47:27;;;;;;;15.63;3.30;;;13.60;99.90;;;;;;5084940;28;20120;-52
2022/10/24 03:49:54;;;;;;;14.18;3.40;;;13.70;99.90;;;;;;5076577;28;20123;-48
2022/10/24 03:52:21;;;;;;;13.45;3.00;;;13.60;99.90;;;;;;5074333;28;20234;-49
2022/10/24 03:54:48;;;;;;;11.82;2.63;;;13.60;99.90;;;;;;5072761;28;20115;-50
2022/10/24 03:57:14;;;;;;;12.40;2.85;;;13.70;99.90;;;;;;5081466;28;20044;-50
2022/10/24 03:59:41;;;;;;;9.18;2.67;;;13.80;99.90;;;;;;5092255;28;20108;-50
2022/10/24 04:02:08;;;;;;;9.55;2.55;;;14.00;99.90;;;;;;5071830;28;20151;-49
2022/10/24 04:04:35;;;;;;;14.40;3.33;;;14.00;99.90;;;;;;5073412;28;20079;-49
2022/10/24 04:07:04;;;;;;;10.85;3.78;;;13.90;99.90;;;;;;5086831;28;20067;-48
2022/10/24 04:09:31;;;;;;;11.52;3.35;;;13.70;99.90;;;;;;5084352;28;20094;-49
2022/10/24 04:11:58;;;;;;;9.52;3.28;;;13.70;99.90;;;;;;5075820;28;20551;-48
2022/10/24 04:14:24;;;;;;;14.63;3.88;;;13.60;99.90;;;;;;5093563;28;20072;-50
2022/10/24 04:16:51;;;;;;;13.15;3.10;;;13.50;99.90;;;;;;5075904;28;20040;-48
2022/10/24 04:19:18;;;;;;;15.35;3.70;;;13.50;99.90;;;;;;5062857;28;20075;-51
2022/10/24 04:21:46;;;;;;;10.30;3.45;;;13.50;99.90;;;;;;5085381;28;20559;-48
2022/10/24 04:24:14;;;;;;;10.10;4.18;;;13.40;99.90;;;;;;5093593;28;20040;-49
2022/10/24 04:26:41;;;;;;;;;;;13.40;99.90;;;;;;5092695;28;20115;-48
2022/10/24 04:29:08;;;;;;;11.48;4.10;;;13.30;99.90;;;;;;5085359;28;19989;-49
2022/10/24 04:31:34;;;;;;;13.73;3.63;;;13.30;99.90;;;;;;5083375;28;20097;-48
2022/10/24 04:34:01;;;;;;;10.63;3.42;;;13.30;99.90;;;;;;5073047;28;20047;-48
2022/10/24 04:36:28;;;;;;;16.65;3.25;;;13.20;99.90;;;;;;5072423;28;20048;-49
2022/10/24 04:38:55;;;;;;;16.80;4.00;;;13.20;99.90;;;;;;5073169;28;20041;-48
2022/10/24 04:41:22;;;;;;;12.15;4.13;;;13.20;99.90;;;;;;5072362;28;20581;-52
2022/10/24 04:43:48;;;;;;;10.73;3.13;;;13.20;99.90;;;;;;5055155;28;20429;-50
2022/10/24 04:46:15;;;;;;;13.35;3.25;;;13.20;99.90;;;;;;5082328;28;20124;-49
2022/10/24 04:48:42;;;;;;;15.57;3.60;;;13.20;99.90;;;;;;5090059;28;20064;-49
2022/10/24 04:51:08;;;;;;;11.57;4.30;;;13.10;99.90;;;;;;5083633;28;20090;-48
2022/10/24 04:53:35;;;;;;;13.68;3.80;;;13.10;99.90;;;;;;5084209;28;20119;-49
2022/10/24 04:56:02;;;;;;;13.77;3.78;;;13.00;99.90;;;;;;5089462;28;20077;-50
2022/10/24 04:58:29;;;;;;;13.20;4.07;;;13.00;99.90;;;;;;5083349;28;20056;-52
2022/10/24 05:00:56;;;;;;;17.23;4.03;;;13.00;99.90;;;;;;5087380;28;20090;-51
2022/10/24 05:03:23;;;;;;;11.65;5.22;;;12.90;99.90;;;;;;5088161;28;20123;-48
2022/10/24 05:05:49;;;;;;;14.55;4.43;;;12.90;99.90;;;;;;5085402;28;20551;-51
2022/10/24 05:08:16;;;;;;;14.38;4.70;;;12.90;99.90;;;;;;5087168;28;20114;-50
2022/10/24 05:10:43;;;;;;;16.58;5.50;;;12.90;99.90;;;;;;5081108;28;20123;-50
2022/10/24 05:13:10;;;;;;;15.73;5.45;;;13.00;99.90;;;;;;5079616;28;20127;-49
2022/10/24 05:15:37;;;;;;;20.45;4.88;;;13.10;99.90;;;;;;5070232;28;20042;-48
2022/10/24 05:18:04;;;;;;;20.58;4.90;;;13.00;99.90;;;;;;5090334;28;20079;-48
2022/10/24 05:20:30;;;;;;;18.77;4.85;;;13.00;99.90;;;;;;5083999;28;20619;-52
2022/10/24 05:22:57;;;;;;;12.30;4.72;;;13.00;99.90;;;;;;5073317;28;20037;-51
2022/10/24 05:25:24;;;;;;;14.90;4.78;;;13.10;99.90;;;;;;5071521;28;20040;-48
2022/10/24 05:27:51;;;;;;;16.77;3.95;;;13.20;99.90;;;;;;5077499;28;20229;-48
2022/10/24 05:30:18;;;;;;;16.45;5.15;;;13.20;99.90;;;;;;5073654;28;20068;-47
2022/10/24 05:32:45;;;;;;;11.10;4.10;;;13.30;99.90;;;;;;5076712;28;20067;-49
2022/10/24 05:35:12;;;;;;;11.60;3.85;;;13.20;99.90;;;;;;5091687;28;20039;-50
2022/10/24 05:37:39;;;;;;;13.75;4.28;;;13.00;99.90;;;;;;5091296;28;20123;-50
2022/10/24 05:40:08;;;;;;;12.45;4.28;;;12.90;99.90;;;;;;5080587;28;20070;-50
2022/10/24 05:42:36;;;;;;;13.95;4.53;;;12.80;99.90;;;;;;5075090;28;20044;-52
2022/10/24 05:45:08;;;;;;;10.93;4.38;;;12.70;99.90;;;;;;5085049;28;20060;-48
2022/10/24 05:47:35;;;;;;;14.45;5.03;;;12.70;99.90;;;;;;5071921;28;20130;-48
2022/10/24 05:50:03;;;;;;;14.45;4.80;;;12.60;99.90;;;;;;5072028;28;20457;-48
2022/10/24 05:52:30;;;;;;;17.02;4.90;;;12.60;99.90;;;;;;5082079;28;20409;-48
2022/10/24 05:54:57;;;;;;;12.15;4.22;;;12.50;99.90;;;;;;5069555;28;20051;-51
2022/10/24 05:57:35;;;;;;;12.95;4.28;;;12.50;99.90;;;;;;5070539;28;20119;-49
2022/10/24 06:00:05;;;;;;;11.63;4.82;;;12.50;99.90;;;;;;5070955;28;20033;-50
2022/10/24 06:02:37;;;;;;;14.55;4.93;;;12.50;99.90;;;;;;5072230;28;20040;-52
2022/10/24 06:05:04;;;;;;;;;;;12.60;99.90;;;;;;5087631;28;20115;-48
2022/10/24 06:07:31;;;;;;;17.77;5.35;;;12.60;99.90;;;;;;5089210;28;20264;-50
2022/10/24 06:09:58;;;;;;;12.40;5.10;;;12.60;99.90;;;;;;5075197;28;20045;-49
2022/10/24 06:12:25;;;;;;;11.43;4.70;;;12.60;99.90;;;;;;5081529;28;20109;-48
2022/10/24 06:14:58;;;;;;;11.38;4.90;;;12.60;99.90;;;;;;5091269;28;20097;-49
2022/10/24 06:17:25;;;;;;;19.30;5.28;;;12.60;99.90;;;;;;5091822;28;20075;-49
2022/10/24 06:19:52;;;;;;;10.50;5.00;;;12.60;99.90;;;;;;5084164;28;20549;-51
2022/10/24 06:22:22;;;;;;;13.15;4.70;;;12.70;99.90;;;;;;5071708;28;20151;-50
2022/10/24 06:24:49;;;;;;;15.65;7.18;;;12.60;99.90;;;;;;5071250;28;20079;-51
2022/10/24 06:27:16;;;;;;;12.13;5.13;;;12.60;99.90;;;;;;5071747;28;20487;-49
2022/10/24 06:29:43;;;;;;;12.77;3.92;;;12.70;99.90;;;;;;5091215;28;20123;-50
2022/10/24 06:32:10;;;;;;;9.70;4.30;;;12.70;99.90;;;;;;5091475;28;20071;-50
2022/10/24 06:34:37;;;;;;;15.35;4.18;;;12.70;99.90;;;;;;5089340;28;20064;-48
2022/10/24 06:37:03;;;;;;;10.43;4.47;;;12.80;99.90;;;;;;5085659;28;20109;-50
2022/10/24 06:39:30;;;;;;;14.02;4.07;;;12.80;99.90;;;;;;5074522;28;20083;-49
2022/10/24 06:41:57;;;;;;;12.65;4.30;;;12.90;99.90;;;;;;5090628;28;20090;-48
2022/10/24 06:44:25;;;;;;;11.05;4.60;;;12.90;99.90;;;;;;5091371;28;20054;-48
2022/10/24 06:46:52;;;;;;;13.45;4.78;;;12.90;99.90;;;;;;5083254;28;20457;-48
2022/10/24 06:49:19;;;;;;;19.33;6.63;;;12.90;99.90;;;;;;5081157;28;20040;-50
2022/10/24 06:51:46;;;;;;;18.38;4.60;;;13.00;99.90;;;;;;5091070;28;20442;-48
2022/10/24 06:54:13;;;;;;;14.90;4.35;;;13.00;99.90;;;;;;5075626;28;20435;-48
2022/10/24 06:56:39;;;;;;;14.52;7.00;;;13.10;99.90;;;;;;5070827;28;20106;-49
2022/10/24 06:59:10;;;;;;;22.85;7.15;;;13.10;99.90;;;;;;5070174;28;20572;-49
2022/10/24 07:01:37;;;;;;;14.63;7.90;;;13.10;99.90;;;;;;5070818;28;20455;-50
2022/10/24 07:04:04;;;;;;;24.50;11.95;;;13.10;99.90;;;;;;5079152;28;20032;-50
2022/10/24 07:06:31;;;;;;;23.35;10.45;;;13.10;99.90;;;;;;5090875;28;20074;-50
2022/10/24 07:09:00;;;;;;;21.38;9.35;;;13.10;99.90;;;;;;5087344;28;20068;-48
2022/10/24 07:11:27;;;;;;;14.60;6.72;;;13.10;99.90;;;;;;5090305;28;20036;-49
2022/10/24 07:13:54;;;;;;;14.02;7.03;;;13.20;99.90;;;;;;5090677;28;20462;-52
2022/10/24 07:16:28;;;;;;;16.98;6.30;;;13.30;99.90;;;;;;5088468;28;20576;-49
2022/10/24 07:18:55;;;;;;;18.10;6.70;;;13.40;99.90;;;;;;5073589;28;20075;-51
2022/10/24 07:21:24;;;;;;;13.98;6.10;;;13.40;99.90;;;;;;5070620;28;20068;-49
2022/10/24 07:23:53;;;;;;;16.15;7.28;;;13.40;99.90;;;;;;5069821;28;20413;-48
2022/10/24 07:26:22;;;;;;;23.08;8.00;;;13.50;99.90;;;;;;5080793;28;20072;-50
2022/10/24 07:28:53;;;;;;;13.80;7.20;;;13.50;99.90;;;;;;5083202;28;20477;-51
2022/10/24 07:31:22;;;;;;;25.48;7.75;;;13.60;99.90;;;;;;5081311;28;20044;-50
2022/10/24 07:33:51;;;;;;;23.95;8.13;;;13.80;99.90;;;;;;5090294;28;20131;-48
2022/10/24 07:36:19;;;;;;;20.45;7.20;;;13.90;99.90;;;;;;5082026;28;20135;-49
2022/10/24 07:38:48;;;;;;;22.33;7.28;;;14.00;99.90;;;;;;5088981;28;20068;-52
2022/10/24 07:41:15;;;;;;;21.25;8.23;;;14.10;99.90;;;;;;5081414;28;20446;-49
2022/10/24 07:43:42;;;;;;;17.60;7.30;;;14.20;99.90;;;;;;5070276;28;20068;-49
2022/10/24 07:46:10;;;;;;;26.90;8.57;;;14.30;99.90;;;;;;5073175;28;20048;-48
2022/10/24 07:48:38;;;;;;;18.50;7.25;;;14.30;99.90;;;;;;5073897;28;20112;-48
2022/10/24 07:51:07;;;;;;;19.88;7.30;;;14.40;99.90;;;;;;5073929;28;20040;-49
2022/10/24 07:53:34;;;;;;;18.05;7.60;;;14.50;99.90;;;;;;5058959;28;20491;-48
2022/10/24 07:56:01;;;;;;;23.75;7.32;;;14.50;99.90;;;;;;5074071;28;20045;-48
2022/10/24 07:58:28;;;;;;;;;;;14.60;99.90;;;;;;5073117;28;20094;-48
2022/10/24 08:01:00;;;;;;;13.32;5.85;;;14.60;99.90;;;;;;5073125;28;19921;-51
2022/10/24 08:03:27;;;;;;;17.92;7.20;;;14.60;99.90;;;;;;5073563;28;20131;-51
2022/10/24 08:05:55;;;;;;;14.50;6.65;;;14.40;99.90;;;;;;5072762;28;20076;-48
2022/10/24 08:08:23;;;;;;;17.65;6.28;;;14.40;99.90;;;;;;5073761;28;20113;-49
2022/10/24 08:15:05;;;;;;;11.90;5.30;;;14.60;99.90;;;;;;5054269;28;20056;-53
2022/10/24 08:17:32;;;;;;;18.92;5.57;;;14.80;99.90;;;;;;5057180;28;20114;-51
2022/10/24 08:19:59;;;;;;;15.35;5.70;;;14.90;99.90;;;;;;5083205;28;20120;-51
2022/10/24 08:22:26;;;;;;;21.75;6.05;;;14.90;99.90;;;;;;5074180;28;20070;-51
2022/10/24 08:24:52;;;;;;;19.90;5.75;;;15.00;99.90;;;;;;5072188;28;20497;-51
2022/10/24 08:27:19;;;;;;;18.85;5.00;;;15.00;99.90;;;;;;5073181;28;20094;-52
2022/10/24 08:29:46;;;;;;;15.60;6.32;;;14.90;99.90;;;;;;5073920;28;20075;-51
2022/10/24 08:32:13;;;;;;;17.27;5.45;;;14.90;99.90;;;;;;5073632;28;20461;-51
2022/10/24 08:34:39;;;;;;;10.57;5.53;;;14.80;99.90;;;;;;5076854;28;20358;-52
2022/10/24 08:37:06;;;;;;;15.48;6.43;;;14.80;99.90;;;;;;5088017;28;20097;-50
2022/10/24 08:39:33;;;;;;;13.55;5.35;;;14.80;99.90;;;;;;5089747;28;20478;-52
2022/10/24 08:42:04;;;;;;;16.08;5.13;;;14.90;99.90;;;;;;5073201;28;20067;-53
2022/10/24 08:44:35;;;;;;;14.38;6.10;;;14.90;99.90;;;;;;5072465;28;20492;-52
2022/10/24 08:47:06;;;;;;;13.10;4.65;;;15.00;99.90;;;;;;5072203;28;20094;-52
2022/10/24 08:49:42;;;;;;;17.80;5.20;;;14.90;99.90;;;;;;5072850;28;20068;-52
2022/10/24 08:52:29;;;;;;;15.23;4.97;;;14.90;99.90;;;;;;5072977;28;20044;-52
2022/10/24 08:55:12;;;;;;;13.77;5.40;;;15.10;99.90;;;;;;5054343;28;20068;-53
2022/10/24 08:57:59;;;;;;;14.65;5.32;;;15.30;99.90;;;;;;5071575;28;20488;-51
2022/10/24 09:00:35;;;;;;;12.80;5.22;;;15.40;99.90;;;;;;5072917;28;20076;-52
2022/10/24 09:03:11;;;;;;;12.77;5.85;;;15.50;99.90;;;;;;5071440;28;20106;-52
2022/10/24 09:05:54;;;;;;;13.35;5.22;;;15.50;99.90;;;;;;5072441;28;20166;-55
2022/10/24 09:08:42;;;;;;;13.40;5.10;;;15.60;99.90;;;;;;5071552;28;20219;-53
2022/10/24 09:11:15;;;;;;;12.98;4.80;;;15.80;99.90;;;;;;5072795;28;20068;-53
2022/10/24 09:13:42;;;;;;;13.88;4.80;;;16.00;99.90;;;;;;5074089;28;20064;-52
2022/10/24 09:16:12;;;;;;;13.52;4.70;;;16.20;99.90;;;;;;5072174;28;20080;-53
2022/10/24 09:18:42;;;;;;;8.65;4.85;;;16.20;99.90;;;;;;5071872;28;20172;-52
2022/10/24 09:21:12;;;;;;;13.90;4.95;;;16.20;99.90;;;;;;5054443;28;20052;-49
2022/10/24 09:23:39;;;;;;;16.30;4.97;;;16.20;99.90;;;;;;5071395;28;20567;-52
2022/10/24 09:26:23;;;;;;;10.52;4.72;;;16.10;99.90;;;;;;5073578;28;20087;-51
2022/10/24 09:28:50;;;;;;;14.02;5.15;;;16.10;99.90;;;;;;5071925;28;20448;-54
2022/10/24 09:31:20;;;;;;;12.30;4.43;;;16.00;99.90;;;;;;5071994;28;20048;-52
2022/10/24 09:33:48;;;;;;;16.80;4.47;;;15.80;99.90;;;;;;5070572;28;20063;-52
2022/10/24 09:36:18;;;;;;;13.07;4.88;;;15.90;99.90;;;;;;5072000;28;20072;-50
2022/10/24 09:38:47;;;;;;;8.80;4.97;;;15.90;99.90;;;;;;5071962;28;20083;-52
2022/10/24 09:41:27;;;;;;;15.30;4.80;;;16.00;99.90;;;;;;5072212;28;20086;-53
2022/10/24 09:43:57;;;;;;;11.13;4.72;;;16.00;99.90;;;;;;5079198;28;20040;-54
2022/10/24 09:46:43;;;;;;;12.85;4.07;;;16.00;99.90;;;;;;5092149;28;20123;-52
2022/10/24 09:49:24;;;;;;;13.90;4.30;;;15.90;99.90;;;;;;5092310;28;20037;-52
2022/10/24 09:52:20;;;;;;;11.70;5.18;;;15.80;99.90;;;;;;5085789;28;20123;-51
2022/10/24 09:55:06;;;;;;;10.00;4.70;;;15.90;99.90;;;;;;5071275;28;20101;-54
2022/10/24 09:57:39;;;;;;;12.77;4.63;;;16.20;99.90;;;;;;5074849;28;20063;-51
2022/10/24 10:00:18;;;;;;;15.68;3.95;;;16.50;99.90;;;;;;5074231;28;20041;-52
2022/10/24 10:03:17;;;;;;;21.70;4.60;;;16.40;99.90;;;;;;5069930;28;20063;-51
2022/10/24 10:05:53;;;;;;;15.95;4.70;;;16.50;99.90;;;;;;5085357;28;20118;-51
2022/10/24 10:08:22;;;;;;;10.77;3.67;;;16.50;99.90;;;;;;5090799;28;20131;-51
2022/10/24 10:10:56;;;;;;;12.88;4.55;;;16.50;99.90;;;;;;5088250;28;20068;-51
2022/10/24 10:13:24;;;;;;;10.05;3.80;;;16.50;99.90;;;;;;5082234;28;20062;-54
2022/10/24 10:15:59;;;;;;;9.30;3.40;;;16.50;99.90;;;;;;5091455;28;20119;-53
2022/10/24 10:18:45;;;;;;;13.77;2.90;;;16.50;99.90;;;;;;5083821;28;20131;-53
2022/10/24 10:21:22;;;;;;;12.00;3.30;;;16.40;99.90;;;;;;5070592;28;20520;-51
2022/10/24 10:23:54;;;;;;;11.63;3.67;;;16.40;99.90;;;;;;5058693;28;20055;-51
2022/10/24 10:26:43;;;;;;;11.40;3.05;;;16.30;99.90;;;;;;5090134;28;20105;-52
2022/10/24 10:29:15;;;;;;;8.95;3.25;;;16.20;99.90;;;;;;5091218;28;20537;-53
2022/10/24 10:31:43;;;;;;;15.30;3.67;;;16.20;99.90;;;;;;5080376;28;20066;-52
2022/10/24 10:34:24;;;;;;;15.07;4.00;;;16.30;99.90;;;;;;5079815;28;20101;-51
2022/10/24 10:37:27;;;;;;;13.30;3.80;;;16.30;99.90;;;;;;5076369;28;20401;-51
2022/10/24 10:40:15;;;;;;;13.32;3.80;;;16.30;99.90;;;;;;5085563;28;20153;-52
2022/10/24 10:42:51;;;;;;;;;;;16.50;99.90;;;;;;5073843;28;20083;-54
2022/10/24 10:45:33;;;;;;;10.02;3.97;;;16.50;99.90;;;;;;5079703;28;19985;-52
2022/10/24 10:48:24;;;;;;;8.00;3.67;;;16.50;99.90;;;;;;5090971;28;20115;-52
2022/10/24 10:51:05;;;;;;;11.13;3.42;;;16.30;99.90;;;;;;5090889;28;20147;-51
2022/10/24 10:54:15;;;;;;;8.80;3.20;;;16.40;99.90;;;;;;5078761;28;20508;-51
2022/10/24 10:56:50;;;;;;;9.30;2.67;;;16.40;99.90;;;;;;5084487;28;20036;-51
2022/10/24 10:59:26;;;;;;;13.55;2.85;;;16.40;99.90;;;;;;5091370;28;20072;-51
2022/10/24 11:02:32;;;;;;;6.97;2.30;;;16.50;99.90;;;;;;5087101;28;20048;-51
2022/10/24 11:05:24;;;;;;;8.38;2.42;;;16.70;99.90;;;;;;5070283;28;20044;-53
2022/10/24 11:08:09;;;;;;;11.00;2.97;;;17.00;99.90;;;;;;5070624;28;20072;-52
2022/10/24 11:10:46;;;;;;;9.90;3.53;;;17.20;99.90;;;;;;5070081;28;20124;-54
2022/10/24 11:13:37;;;;;;;8.30;3.22;;;17.40;99.90;;;;;;5088151;28;20036;-52
2022/10/24 11:16:11;;;;;;;11.13;3.05;;;17.40;99.90;;;;;;5079044;28;20075;-53
2022/10/24 11:18:42;;;;;;;10.57;2.78;;;17.40;99.90;;;;;;5091264;28;20100;-52
2022/10/24 11:21:12;;;;;;;5.60;2.45;;;17.30;99.90;;;;;;5079512;28;20075;-52
2022/10/24 11:23:48;;;;;;;9.18;2.75;;;17.10;99.90;;;;;;5074407;28;20155;-51
2022/10/24 11:26:31;;;;;;;7.22;2.28;;;16.80;99.90;;;;;;5073901;28;20090;-52
2022/10/24 11:29:01;;;;;;;10.13;2.97;;;16.70;99.90;;;;;;5074517;28;20040;-51
2022/10/24 11:31:33;;;;;;;9.93;1.75;;;16.60;99.90;;;;;;5074422;28;20445;-52
2022/10/24 11:34:11;;;;;;;8.40;1.73;;;16.50;99.90;;;;;;5075971;28;20068;-52
2022/10/24 11:37:04;;;;;;;10.88;2.25;;;16.50;99.90;;;;;;5081792;28;20076;-51
2022/10/24 11:39:49;;;;;;;6.25;2.33;;;16.40;99.90;;;;;;5074275;28;20120;-51
2022/10/24 11:42:22;;;;;;;9.80;2.70;;;16.30;99.90;;;;;;5074730;28;20037;-51
2022/10/24 11:45:10;;;;;;;5.57;2.33;;;16.20;99.90;;;;;;5087678;28;20439;-51
2022/10/24 11:47:48;;;;;;;11.98;3.20;;;16.10;99.90;;;;;;5094297;28;20388;-51
2022/10/24 11:50:43;;;;;;;5.35;2.50;;;16.00;99.90;;;;;;5094404;28;20097;-51
2022/10/24 11:53:48;;;;;;;7.75;2.47;;;15.90;99.90;;;;;;5082768;28;20459;-51
2022/10/24 11:56:24;;;;;;;7.65;2.55;;;15.70;99.90;;;;;;5061969;28;20079;-52
2022/10/24 11:59:05;;;;;;;9.02;1.95;;;15.60;99.90;;;;;;5073899;28;20052;-52
2022/10/24 12:01:55;;;;;;;6.30;2.70;;;15.50;99.90;;;;;;5076663;28;20119;-54
2022/10/24 12:05:01;;;;;;;4.80;2.00;;;15.40;99.90;;;;;;5073504;28;20549;-51
2022/10/24 12:08:06;;;;;;;8.90;2.80;;;15.30;99.90;;;;;;5073547;28;20127;-53
2022/10/24 12:10:51;;;;;;;8.70;2.40;;;15.20;99.90;;;;;;5085017;28;20068;-53
2022/10/24 12:13:51;;;;;;;7.60;2.58;;;15.10;99.90;;;;;;5093141;28;20086;-51
2022/10/24 12:16:21;;;;;;;12.02;2.10;;;14.90;99.90;;;;;;5094126;28;20079;-52
2022/10/24 12:18:54;;;;;;;5.40;2.22;;;14.90;99.90;;;;;;5082128;28;20161;-53
2022/10/24 12:21:25;;;;;;;4.72;2.40;;;14.70;99.90;;;;;;5073277;28;20437;-51
2022/10/24 12:23:59;;;;;;;8.18;2.47;;;14.60;99.90;;;;;;5073313;28;20049;-52
2022/10/24 12:26:30;;;;;;;4.65;2.17;;;14.50;99.90;;;;;;5076103;28;20048;-52
2022/10/24 12:29:04;;;;;;;9.43;3.13;;;14.80;99.90;;;;;;5073241;28;20469;-52
2022/10/24 12:31:36;;;;;;;8.57;2.90;;;14.40;99.90;;;;;;5073272;28;20098;-51
2022/10/24 12:34:15;;;;;;;9.75;3.08;;;14.40;99.90;;;;;;5073246;28;20487;-51
2022/10/24 12:37:11;;;;;;;7.45;2.97;;;14.40;99.90;;;;;;5082156;28;20101;-52
2022/10/24 12:39:44;;;;;;;6.35;2.35;;;14.30;99.90;;;;;;5085998;28;20094;-51
2022/10/24 12:42:36;;;;;;;6.20;2.42;;;14.30;99.90;;;;;;5092384;28;20040;-51
2022/10/24 12:45:03;;;;;;;4.50;2.40;;;14.10;99.90;;;;;;5089502;28;20048;-51
2022/10/24 12:47:34;;;;;;;4.18;2.28;;;14.10;99.90;;;;;;5072984;28;20447;-50
2022/10/24 12:50:19;;;;;;;5.35;1.92;;;14.10;99.90;;;;;;5072788;28;20133;-51
2022/10/24 12:52:46;;;;;;;7.72;1.80;;;14.10;99.90;;;;;;5072404;28;20136;-52
2022/10/24 12:55:35;;;;;;;3.22;1.50;;;13.90;99.90;;;;;;5072435;28;20751;-51
2022/10/24 12:58:37;;;;;;;3.72;1.30;;;13.90;99.90;;;;;;5073112;28;20378;-51
2022/10/24 13:01:05;;;;;;;3.77;1.57;;;13.80;99.90;;;;;;5072950;28;20076;-51
2022/10/24 13:03:38;;;;;;;3.17;1.77;;;13.80;99.90;;;;;;5071586;28;20143;-52
2022/10/24 13:06:21;;;;;;;83.38;24.88;;;13.80;99.90;;;;;;5072883;28;20390;-51
2022/10/24 13:09:01;;;;;;;15.80;4.65;;;13.80;99.90;;;;;;5072634;28;20064;-51
2022/10/24 13:11:44;;;;;;;6.07;1.45;;;13.80;99.90;;;;;;5077482;28;20040;-52
2022/10/24 13:14:59;;;;;;;7.63;1.55;;;13.80;99.90;;;;;;5092342;28;20509;-52